sensor_id;sensor_type;location;lat;lon;timestamp;pressure;altitude;pressure_sealevel;temperature;humidity
40650;BME280;26342;42.826;23.992;2023-09-18T00:00:22;95837.50;;;16.30;100.00
40650;BME280;26342;42.826;23.992;2023-09-18T00:02:48;95836.94;;;16.33;100.00
40650;BME280;26342;42.826;23.992;2023-09-18T00:05:14;95837.00;;;16.28;100.00
40650;BME280;26342;42.826;23.992;2023-09-18T00:07:42;95840.50;;;16.29;100.00
40650;BME280;26342;42.826;23.992;2023-09-18T00:10:09;95839.16;;;16.26;100.00
40650;BME280;26342;42.826;23.992;2023-09-18T00:12:35;95837.81;;;16.24;100.00
40650;BME280;26342;42.826;23.992;2023-09-18T00:15:00;95844.31;;;16.23;100.00
40650;BME280;26342;42.826;23.992;2023-09-18T00:17:26;95839.72;;;16.23;100.00
40650;BME280;26342;42.826;23.992;2023-09-18T00:19:52;95837.59;;;16.20;100.00
40650;BME280;26342;42.826;23.992;2023-09-18T00:22:18;95848.88;;;16.22;100.00
40650;BME280;26342;42.826;23.992;2023-09-18T00:24:44;95846.72;;;16.19;100.00
40650;BME280;26342;42.826;23.992;2023-09-18T00:27:09;95841.63;;;16.17;100.00
40650;BME280;26342;42.826;23.992;2023-09-18T00:29:36;95844.31;;;16.17;100.00
40650;BME280;26342;42.826;23.992;2023-09-18T00:32:02;95835.41;;;16.22;100.00
40650;BME280;26342;42.826;23.992;2023-09-18T00:34:29;95833.81;;;16.21;100.00
40650;BME280;26342;42.826;23.992;2023-09-18T00:36:57;95838.41;;;16.21;100.00
40650;BME280;26342;42.826;23.992;2023-09-18T00:39:22;95824.66;;;16.22;100.00
40650;BME280;26342;42.826;23.992;2023-09-18T00:41:47;95834.84;;;16.25;100.00
40650;BME280;26342;42.826;23.992;2023-09-18T00:44:16;95827.88;;;16.19;100.00
40650;BME280;26342;42.826;23.992;2023-09-18T00:46:42;95839.44;;;16.25;100.00
40650;BME280;26342;42.826;23.992;2023-09-18T00:49:08;95844.53;;;16.26;100.00
40650;BME280;26342;42.826;23.992;2023-09-18T00:51:35;95844.81;;;16.25;100.00
40650;BME280;26342;42.826;23.992;2023-09-18T00:54:01;95839.75;;;16.18;100.00
40650;BME280;26342;42.826;23.992;2023-09-18T00:56:26;95842.97;;;16.20;100.00
40650;BME280;26342;42.826;23.992;2023-09-18T00:58:52;95849.16;;;16.21;100.00
40650;BME280;26342;42.826;23.992;2023-09-18T01:01:19;95849.72;;;16.17;100.00
40650;BME280;26342;42.826;23.992;2023-09-18T01:03:49;95858.59;;;16.18;100.00
40650;BME280;26342;42.826;23.992;2023-09-18T01:06:16;95854.00;;;16.18;100.00
40650;BME280;26342;42.826;23.992;2023-09-18T01:08:42;95851.88;;;16.15;100.00
40650;BME280;26342;42.826;23.992;2023-09-18T01:11:16;95861.53;;;16.22;100.00
40650;BME280;26342;42.826;23.992;2023-09-18T01:14:12;95858.38;;;16.14;100.00
40650;BME280;26342;42.826;23.992;2023-09-18T01:16:46;95856.22;;;16.11;100.00
40650;BME280;26342;42.826;23.992;2023-09-18T01:19:15;95861.06;;;16.14;100.00
40650;BME280;26342;42.826;23.992;2023-09-18T01:21:41;95863.53;;;16.06;100.00
40650;BME280;26342;42.826;23.992;2023-09-18T01:24:06;95853.56;;;16.06;100.00
40650;BME280;26342;42.826;23.992;2023-09-18T01:26:32;95864.34;;;16.06;100.00
40650;BME280;26342;42.826;23.992;2023-09-18T01:28:57;95842.91;;;15.91;100.00
40650;BME280;26342;42.826;23.992;2023-09-18T01:31:23;95857.69;;;15.94;100.00
40650;BME280;26342;42.826;23.992;2023-09-18T01:33:48;95856.44;;;15.76;100.00
40650;BME280;26342;42.826;23.992;2023-09-18T01:36:16;95867.47;;;15.74;100.00
40650;BME280;26342;42.826;23.992;2023-09-18T01:38:42;95857.53;;;15.75;100.00
40650;BME280;26342;42.826;23.992;2023-09-18T01:41:09;95851.88;;;15.71;100.00
40650;BME280;26342;42.826;23.992;2023-09-18T01:43:34;95857.53;;;15.70;100.00
40650;BME280;26342;42.826;23.992;2023-09-18T01:46:00;95859.66;;;15.78;100.00
40650;BME280;26342;42.826;23.992;2023-09-18T01:48:26;95851.84;;;15.81;100.00
40650;BME280;26342;42.826;23.992;2023-09-18T01:50:52;95853.41;;;15.87;100.00
40650;BME280;26342;42.826;23.992;2023-09-18T01:53:17;95847.78;;;15.84;100.00
40650;BME280;26342;42.826;23.992;2023-09-18T01:55:42;95854.50;;;15.86;100.00
40650;BME280;26342;42.826;23.992;2023-09-18T01:58:09;95854.75;;;15.90;100.00
40650;BME280;26342;42.826;23.992;2023-09-18T02:00:35;95853.66;;;15.91;100.00
40650;BME280;26342;42.826;23.992;2023-09-18T02:03:00;95851.25;;;15.89;100.00
40650;BME280;26342;42.826;23.992;2023-09-18T02:05:26;95851.53;;;15.88;100.00
40650;BME280;26342;42.826;23.992;2023-09-18T02:07:51;95857.97;;;15.87;100.00
40650;BME280;26342;42.826;23.992;2023-09-18T02:10:16;95860.66;;;15.87;100.00
40650;BME280;26342;42.826;23.992;2023-09-18T02:12:42;95857.47;;;15.85;100.00
40650;BME280;26342;42.826;23.992;2023-09-18T02:15:07;95858.78;;;15.87;100.00
40650;BME280;26342;42.826;23.992;2023-09-18T02:17:35;95858.78;;;15.87;100.00
40650;BME280;26342;42.826;23.992;2023-09-18T02:20:00;95841.38;;;15.75;100.00
40650;BME280;26342;42.826;23.992;2023-09-18T02:22:31;95866.06;;;15.87;100.00
40650;BME280;26342;42.826;23.992;2023-09-18T02:24:57;95865.53;;;15.90;100.00
40650;BME280;26342;42.826;23.992;2023-09-18T02:27:23;95866.03;;;15.92;100.00
40650;BME280;26342;42.826;23.992;2023-09-18T02:29:49;95853.16;;;15.89;100.00
40650;BME280;26342;42.826;23.992;2023-09-18T02:32:15;95869.25;;;15.94;100.00
40650;BME280;26342;42.826;23.992;2023-09-18T02:34:41;95851.53;;;15.88;100.00
40650;BME280;26342;42.826;23.992;2023-09-18T02:37:06;95859.84;;;15.97;100.00
40650;BME280;26342;42.826;23.992;2023-09-18T02:39:32;95863.06;;;15.94;100.00
40650;BME280;26342;42.826;23.992;2023-09-18T02:41:58;95863.88;;;15.94;100.00
40650;BME280;26342;42.826;23.992;2023-09-18T02:44:23;95860.09;;;15.95;100.00
40650;BME280;26342;42.826;23.992;2023-09-18T02:46:48;95857.41;;;15.95;100.00
40650;BME280;26342;42.826;23.992;2023-09-18T02:49:14;95857.97;;;15.92;100.00
40650;BME280;26342;42.826;23.992;2023-09-18T02:51:40;95852.88;;;15.90;100.00
40650;BME280;26342;42.826;23.992;2023-09-18T02:54:05;95855.56;;;15.90;100.00
40650;BME280;26342;42.826;23.992;2023-09-18T02:56:31;95859.34;;;15.84;100.00
40650;BME280;26342;42.826;23.992;2023-09-18T02:58:56;95853.94;;;15.89;100.00
40650;BME280;26342;42.826;23.992;2023-09-18T03:01:22;95842.16;;;15.80;100.00
40650;BME280;26342;42.826;23.992;2023-09-18T03:03:47;95858.75;;;15.98;100.00
40650;BME280;26342;42.826;23.992;2023-09-18T03:06:13;95852.28;;;15.94;100.00
40650;BME280;26342;42.826;23.992;2023-09-18T03:08:38;95861.94;;;16.00;100.00
40650;BME280;26342;42.826;23.992;2023-09-18T03:11:10;95862.47;;;16.02;100.00
40650;BME280;26342;42.826;23.992;2023-09-18T03:13:36;95860.88;;;16.01;100.00
40650;BME280;26342;42.826;23.992;2023-09-18T03:16:01;95856.56;;;16.00;100.00
40650;BME280;26342;42.826;23.992;2023-09-18T03:18:27;95860.88;;;15.96;100.00
40650;BME280;26342;42.826;23.992;2023-09-18T03:20:52;95856.34;;;15.91;100.00
40650;BME280;26342;42.826;23.992;2023-09-18T03:23:18;95856.88;;;15.93;100.00
40650;BME280;26342;42.826;23.992;2023-09-18T03:25:43;95863.31;;;15.97;100.00
40650;BME280;26342;42.826;23.992;2023-09-18T03:28:09;95857.16;;;15.91;100.00
40650;BME280;26342;42.826;23.992;2023-09-18T03:30:34;95852.88;;;15.90;100.00
40650;BME280;26342;42.826;23.992;2023-09-18T03:32:59;95851.78;;;15.86;100.00
40650;BME280;26342;42.826;23.992;2023-09-18T03:35:27;95854.50;;;15.86;100.00
40650;BME280;26342;42.826;23.992;2023-09-18T03:37:53;95846.72;;;15.80;100.00
40650;BME280;26342;42.826;23.992;2023-09-18T03:40:19;95842.97;;;15.81;100.00
40650;BME280;26342;42.826;23.992;2023-09-18T03:42:46;95848.06;;;15.82;100.00
40650;BME280;26342;42.826;23.992;2023-09-18T03:45:11;95848.34;;;15.81;100.00
40650;BME280;26342;42.826;23.992;2023-09-18T03:47:38;95853.97;;;15.84;100.00
40650;BME280;26342;42.826;23.992;2023-09-18T03:50:08;95840.00;;;15.77;100.00
40650;BME280;26342;42.826;23.992;2023-09-18T03:52:35;95846.72;;;15.80;100.00
40650;BME280;26342;42.826;23.992;2023-09-18T03:55:00;95849.69;;;15.78;100.00
40650;BME280;26342;42.826;23.992;2023-09-18T03:57:26;95843.50;;;15.78;100.00
40650;BME280;26342;42.826;23.992;2023-09-18T03:59:51;95843.28;;;15.74;100.00
40650;BME280;26342;42.826;23.992;2023-09-18T04:02:17;95843.78;;;15.76;100.00
40650;BME280;26342;42.826;23.992;2023-09-18T04:04:42;95826.34;;;15.69;100.00
40650;BME280;26342;42.826;23.992;2023-09-18T04:07:09;95839.50;;;15.75;100.00
40650;BME280;26342;42.826;23.992;2023-09-18T04:09:34;95840.00;;;15.77;100.00
40650;BME280;26342;42.826;23.992;2023-09-18T04:12:01;95841.63;;;15.78;100.00
40650;BME280;26342;42.826;23.992;2023-09-18T04:14:26;95820.97;;;15.69;100.00
40650;BME280;26342;42.826;23.992;2023-09-18T04:16:52;95838.94;;;15.78;100.00
40650;BME280;26342;42.826;23.992;2023-09-18T04:19:17;95833.81;;;15.77;100.00
40650;BME280;26342;42.826;23.992;2023-09-18T04:21:43;95831.41;;;15.75;100.00
40650;BME280;26342;42.826;23.992;2023-09-18T04:24:09;95842.16;;;15.80;100.00
40650;BME280;26342;42.826;23.992;2023-09-18T04:26:34;95844.84;;;15.80;100.00
40650;BME280;26342;42.826;23.992;2023-09-18T04:29:00;95834.91;;;15.81;100.00
40650;BME280;26342;42.826;23.992;2023-09-18T04:31:26;95835.19;;;15.74;100.00
40650;BME280;26342;42.826;23.992;2023-09-18T04:33:53;95842.97;;;15.81;100.00
40650;BME280;26342;42.826;23.992;2023-09-18T04:36:18;95848.06;;;15.82;100.00
40650;BME280;26342;42.826;23.992;2023-09-18T04:38:44;95853.16;;;15.84;100.00
40650;BME280;26342;42.826;23.992;2023-09-18T04:41:09;95848.84;;;15.88;100.00
40650;BME280;26342;42.826;23.992;2023-09-18T04:43:37;95853.41;;;15.87;100.00
40650;BME280;26342;42.826;23.992;2023-09-18T04:46:04;95855.06;;;15.83;100.00
40650;BME280;26342;42.826;23.992;2023-09-18T04:48:31;95852.94;;;15.80;100.00
40650;BME280;26342;42.826;23.992;2023-09-18T04:50:57;95861.47;;;15.87;100.00
40650;BME280;26342;42.826;23.992;2023-09-18T04:53:23;95855.28;;;15.87;100.00
40650;BME280;26342;42.826;23.992;2023-09-18T04:55:48;95853.16;;;15.89;100.00
40650;BME280;26342;42.826;23.992;2023-09-18T04:58:17;95856.34;;;15.96;100.00
40650;BME280;26342;42.826;23.992;2023-09-18T05:00:43;95857.09;;;16.02;100.00
40650;BME280;26342;42.826;23.992;2023-09-18T05:03:10;95856.81;;;16.03;100.00
40650;BME280;26342;42.826;23.992;2023-09-18T05:05:36;95851.69;;;16.07;100.00
40650;BME280;26342;42.826;23.992;2023-09-18T05:08:02;95849.78;;;16.07;100.00
40650;BME280;26342;42.826;23.992;2023-09-18T05:10:30;95851.69;;;16.07;100.00
40650;BME280;26342;42.826;23.992;2023-09-18T05:12:56;95851.97;;;16.05;100.00
40650;BME280;26342;42.826;23.992;2023-09-18T05:15:26;95844.94;;;16.09;100.00
40650;BME280;26342;42.826;23.992;2023-09-18T05:17:54;95850.81;;;16.16;100.00
40650;BME280;26342;42.826;23.992;2023-09-18T05:20:24;95845.91;;;16.24;100.00
40650;BME280;26342;42.826;23.992;2023-09-18T05:22:50;95839.44;;;16.25;100.00
40650;BME280;26342;42.826;23.992;2023-09-18T05:25:18;95849.59;;;16.33;100.00
40650;BME280;26342;42.826;23.992;2023-09-18T05:27:44;95847.16;;;16.36;100.00
40650;BME280;26342;42.826;23.992;2023-09-18T05:30:11;95847.72;;;16.33;100.00
40650;BME280;26342;42.826;23.992;2023-09-18T05:32:37;95844.50;;;16.31;100.00
40650;BME280;26342;42.826;23.992;2023-09-18T05:35:03;95851.81;;;16.26;100.00
40650;BME280;26342;42.826;23.992;2023-09-18T05:37:31;95857.75;;;16.28;100.00
40650;BME280;26342;42.826;23.992;2023-09-18T05:39:57;95862.28;;;16.27;100.00
40650;BME280;26342;42.826;23.992;2023-09-18T05:42:22;95858.78;;;16.27;100.00
40650;BME280;26342;42.826;23.992;2023-09-18T05:44:48;95864.97;;;16.27;100.00
40650;BME280;26342;42.826;23.992;2023-09-18T05:47:13;95860.16;;;16.24;100.00
40650;BME280;26342;42.826;23.992;2023-09-18T05:49:38;95869.56;;;16.27;100.00
40650;BME280;26342;42.826;23.992;2023-09-18T05:52:04;95866.84;;;16.32;100.00
40650;BME280;26342;42.826;23.992;2023-09-18T05:54:29;95873.00;;;16.37;100.00
40650;BME280;26342;42.826;23.992;2023-09-18T05:56:55;95855.47;;;16.40;100.00
40650;BME280;26342;42.826;23.992;2023-09-18T05:59:20;95870.53;;;16.41;100.00
40650;BME280;26342;42.826;23.992;2023-09-18T06:01:46;95869.72;;;16.45;100.00
40650;BME280;26342;42.826;23.992;2023-09-18T06:04:13;95869.44;;;16.47;100.00
40650;BME280;26342;42.826;23.992;2023-09-18T06:06:38;95863.53;;;16.45;100.00
40650;BME280;26342;42.826;23.992;2023-09-18T06:09:04;95867.25;;;16.49;100.00
40650;BME280;26342;42.826;23.992;2023-09-18T06:11:30;95864.81;;;16.53;100.00
40650;BME280;26342;42.826;23.992;2023-09-18T06:13:55;95872.81;;;16.63;100.00
40650;BME280;26342;42.826;23.992;2023-09-18T06:16:20;95867.41;;;16.63;100.00
40650;BME280;26342;42.826;23.992;2023-09-18T06:18:46;95878.38;;;16.77;100.00
40650;BME280;26342;42.826;23.992;2023-09-18T06:21:11;95873.97;;;16.86;100.00
40650;BME280;26342;42.826;23.992;2023-09-18T06:23:36;95879.78;;;16.98;100.00
40650;BME280;26342;42.826;23.992;2023-09-18T06:26:02;95877.03;;;17.03;100.00
40650;BME280;26342;42.826;23.992;2023-09-18T06:28:29;95878.78;;;17.18;100.00
40650;BME280;26342;42.826;23.992;2023-09-18T06:30:55;95856.13;;;17.19;100.00
40650;BME280;26342;42.826;23.992;2023-09-18T06:33:20;95874.06;;;17.28;100.00
40650;BME280;26342;42.826;23.992;2023-09-18T06:35:46;95875.00;;;17.43;100.00
40650;BME280;26342;42.826;23.992;2023-09-18T06:38:13;95881.06;;;17.53;100.00
40650;BME280;26342;42.826;23.992;2023-09-18T06:40:40;95875.66;;;17.53;100.00
40650;BME280;26342;42.826;23.992;2023-09-18T06:43:06;95874.59;;;17.54;100.00
40650;BME280;26342;42.826;23.992;2023-09-18T06:45:31;95875.06;;;17.62;100.00
40650;BME280;26342;42.826;23.992;2023-09-18T06:47:58;95873.06;;;17.72;100.00
40650;BME280;26342;42.826;23.992;2023-09-18T06:50:25;95868.47;;;17.73;100.00
40650;BME280;26342;42.826;23.992;2023-09-18T06:52:51;95878.31;;;17.82;100.00
40650;BME280;26342;42.826;23.992;2023-09-18T06:55:16;95874.09;;;17.95;100.00
40650;BME280;26342;42.826;23.992;2023-09-18T06:57:42;95878.84;;;18.03;100.00
40650;BME280;26342;42.826;23.992;2023-09-18T07:00:08;95874.09;;;18.14;100.00
40650;BME280;26342;42.826;23.992;2023-09-18T07:02:33;95865.69;;;18.16;100.00
40650;BME280;26342;42.826;23.992;2023-09-18T07:04:59;95875.19;;;18.32;100.00
40650;BME280;26342;42.826;23.992;2023-09-18T07:07:25;95873.00;;;18.34;100.00
40650;BME280;26342;42.826;23.992;2023-09-18T07:09:53;95874.25;;;18.41;100.00
40650;BME280;26342;42.826;23.992;2023-09-18T07:12:19;95872.03;;;18.44;100.00
40650;BME280;26342;42.826;23.992;2023-09-18T07:14:47;95870.94;;;18.45;100.00
40650;BME280;26342;42.826;23.992;2023-09-18T07:17:12;95876.72;;;18.57;100.00
40650;BME280;26342;42.826;23.992;2023-09-18T07:19:38;95874.06;;;18.71;100.00
40650;BME280;26342;42.826;23.992;2023-09-18T07:22:04;95875.41;;;18.87;100.00
40650;BME280;26342;42.826;23.992;2023-09-18T07:24:29;95878.16;;;19.01;100.00
40650;BME280;26342;42.826;23.992;2023-09-18T07:26:55;95870.06;;;19.14;100.00
40650;BME280;26342;42.826;23.992;2023-09-18T07:29:22;95834.47;;;19.07;100.00
40650;BME280;26342;42.826;23.992;2023-09-18T07:31:50;95865.84;;;19.49;100.00
40650;BME280;26342;42.826;23.992;2023-09-18T07:34:17;95870.59;;;19.58;100.00
40650;BME280;26342;42.826;23.992;2023-09-18T07:36:43;95858.47;;;19.69;100.00
40650;BME280;26342;42.826;23.992;2023-09-18T07:39:09;95873.78;;;19.87;100.00
40650;BME280;26342;42.826;23.992;2023-09-18T07:41:37;95874.25;;;20.03;100.00
40650;BME280;26342;42.826;23.992;2023-09-18T07:44:02;95864.50;;;20.16;100.00
40650;BME280;26342;42.826;23.992;2023-09-18T07:46:28;95874.69;;;20.32;100.00
40650;BME280;26342;42.826;23.992;2023-09-18T07:48:53;95873.94;;;20.54;100.00
40650;BME280;26342;42.826;23.992;2023-09-18T07:51:19;95871.03;;;20.73;100.00
40650;BME280;26342;42.826;23.992;2023-09-18T07:53:44;95871.41;;;20.80;100.00
40650;BME280;26342;42.826;23.992;2023-09-18T07:56:10;95881.88;;;20.96;100.00
40650;BME280;26342;42.826;23.992;2023-09-18T07:58:35;95872.34;;;21.07;100.00
40650;BME280;26342;42.826;23.992;2023-09-18T08:01:04;95870.47;;;21.16;100.00
40650;BME280;26342;42.826;23.992;2023-09-18T08:03:31;95872.00;;;21.31;100.00
40650;BME280;26342;42.826;23.992;2023-09-18T08:05:57;95867.78;;;21.56;100.00
40650;BME280;26342;42.826;23.992;2023-09-18T08:08:23;95869.59;;;21.69;100.00
40650;BME280;26342;42.826;23.992;2023-09-18T08:10:51;95874.25;;;21.77;100.00
40650;BME280;26342;42.826;23.992;2023-09-18T08:13:17;95873.44;;;21.68;100.00
40650;BME280;26342;42.826;23.992;2023-09-18T08:15:43;95870.44;;;21.78;100.00
40650;BME280;26342;42.826;23.992;2023-09-18T08:18:09;95877.00;;;21.86;100.00
40650;BME280;26342;42.826;23.992;2023-09-18T08:20:36;95874.13;;;21.82;100.00
40650;BME280;26342;42.826;23.992;2023-09-18T08:23:05;95872.19;;;21.74;100.00
40650;BME280;26342;42.826;23.992;2023-09-18T08:25:32;95876.19;;;21.77;100.00
40650;BME280;26342;42.826;23.992;2023-09-18T08:27:57;95875.03;;;21.69;100.00
40650;BME280;26342;42.826;23.992;2023-09-18T08:30:23;95877.63;;;21.74;100.00
40650;BME280;26342;42.826;23.992;2023-09-18T08:32:49;95866.09;;;21.77;100.00
40650;BME280;26342;42.826;23.992;2023-09-18T08:35:15;95874.94;;;21.91;100.00
40650;BME280;26342;42.826;23.992;2023-09-18T08:37:41;95874.94;;;21.91;100.00
40650;BME280;26342;42.826;23.992;2023-09-18T08:40:09;95865.81;;;21.87;100.00
40650;BME280;26342;42.826;23.992;2023-09-18T08:42:38;95864.22;;;21.86;100.00
40650;BME280;26342;42.826;23.992;2023-09-18T08:45:09;95861.16;;;21.88;100.00
40650;BME280;26342;42.826;23.992;2023-09-18T08:47:38;95863.75;;;22.01;100.00
40650;BME280;26342;42.826;23.992;2023-09-18T08:50:06;95866.72;;;22.31;100.00
40650;BME280;26342;42.826;23.992;2023-09-18T08:52:35;95859.66;;;22.56;100.00
40650;BME280;26342;42.826;23.992;2023-09-18T08:55:01;95848.13;;;22.50;100.00
40650;BME280;26342;42.826;23.992;2023-09-18T08:57:29;95862.53;;;22.51;100.00
40650;BME280;26342;42.826;23.992;2023-09-18T08:59:56;95859.19;;;22.54;100.00
40650;BME280;26342;42.826;23.992;2023-09-18T09:02:23;95862.53;;;22.51;100.00
40650;BME280;26342;42.826;23.992;2023-09-18T09:04:48;95863.66;;;22.41;100.00
40650;BME280;26342;42.826;23.992;2023-09-18T09:07:14;95846.53;;;22.41;100.00
40650;BME280;26342;42.826;23.992;2023-09-18T09:09:40;95855.31;;;22.72;100.00
40650;BME280;26342;42.826;23.992;2023-09-18T09:12:07;95851.66;;;22.68;100.00
40650;BME280;26342;42.826;23.992;2023-09-18T09:14:33;95855.66;;;22.62;100.00
40650;BME280;26342;42.826;23.992;2023-09-18T09:16:58;95856.31;;;22.68;100.00
40650;BME280;26342;42.826;23.992;2023-09-18T09:19:42;95853.25;;;22.78;100.00
40650;BME280;26342;42.826;23.992;2023-09-18T09:22:08;95853.09;;;22.92;100.00
40650;BME280;26342;42.826;23.992;2023-09-18T09:24:42;95849.88;;;22.90;100.00
40650;BME280;26342;42.826;23.992;2023-09-18T09:27:09;95850.19;;;22.97;100.00
40650;BME280;26342;42.826;23.992;2023-09-18T09:29:35;95856.59;;;23.01;100.00
40650;BME280;26342;42.826;23.992;2023-09-18T09:32:17;95847.09;;;23.16;100.00
40650;BME280;26342;42.826;23.992;2023-09-18T09:34:44;95850.31;;;23.09;100.00
40650;BME280;26342;42.826;23.992;2023-09-18T09:37:10;95851.94;;;23.01;100.00
40650;BME280;26342;42.826;23.992;2023-09-18T09:39:51;95839.97;;;22.85;100.00
40650;BME280;26342;42.826;23.992;2023-09-18T09:42:19;95849.53;;;22.82;100.00
40650;BME280;26342;42.826;23.992;2023-09-18T09:45:11;95851.47;;;22.73;100.00
40650;BME280;26342;42.826;23.992;2023-09-18T09:47:38;95852.13;;;22.70;100.00
40650;BME280;26342;42.826;23.992;2023-09-18T09:50:08;95852.63;;;22.64;100.00
40650;BME280;26342;42.826;23.992;2023-09-18T09:52:35;95841.25;;;22.62;100.00
40650;BME280;26342;42.826;23.992;2023-09-18T09:55:02;95848.28;;;22.63;100.00
40650;BME280;26342;42.826;23.992;2023-09-18T09:57:31;95854.88;;;22.62;100.00
40650;BME280;26342;42.826;23.992;2023-09-18T10:00:04;95850.56;;;22.61;100.00
40650;BME280;26342;42.826;23.992;2023-09-18T10:02:47;95846.38;;;22.63;100.00
40650;BME280;26342;42.826;23.992;2023-09-18T10:05:15;95850.84;;;22.59;100.00
40650;BME280;26342;42.826;23.992;2023-09-18T10:07:42;95844.47;;;22.64;100.00
40650;BME280;26342;42.826;23.992;2023-09-18T10:10:08;95852.78;;;22.67;100.00
40650;BME280;26342;42.826;23.992;2023-09-18T10:12:36;95844.31;;;22.69;100.00
40650;BME280;26342;42.826;23.992;2023-09-18T10:15:02;95847.50;;;22.71;100.00
40650;BME280;26342;42.826;23.992;2023-09-18T10:17:30;95843.81;;;22.75;100.00
40650;BME280;26342;42.826;23.992;2023-09-18T10:20:12;95846.53;;;22.75;100.00
40650;BME280;26342;42.826;23.992;2023-09-18T10:22:49;95841.25;;;22.70;100.00
40650;BME280;26342;42.826;23.992;2023-09-18T10:25:21;95840.44;;;22.70;100.00
40650;BME280;26342;42.826;23.992;2023-09-18T10:27:48;95835.03;;;22.61;100.00
40650;BME280;26342;42.826;23.992;2023-09-18T10:30:24;95848.47;;;22.57;100.00
40650;BME280;26342;42.826;23.992;2023-09-18T10:32:51;95842.53;;;22.55;100.00
40650;BME280;26342;42.826;23.992;2023-09-18T10:35:17;95839.97;;;22.42;100.00
40650;BME280;26342;42.826;23.992;2023-09-18T10:37:43;95823.66;;;22.42;100.00
40650;BME280;26342;42.826;23.992;2023-09-18T10:40:11;95832.16;;;22.40;100.00
40650;BME280;26342;42.826;23.992;2023-09-18T10:42:41;95831.50;;;22.43;100.00
40650;BME280;26342;42.826;23.992;2023-09-18T10:45:10;95841.09;;;22.49;100.00
40650;BME280;26342;42.826;23.992;2023-09-18T10:47:38;95832.91;;;22.67;100.00
40650;BME280;26342;42.826;23.992;2023-09-18T10:50:06;95815.47;;;22.76;100.00
40650;BME280;26342;42.826;23.992;2023-09-18T10:52:34;95828.75;;;22.87;100.00
40650;BME280;26342;42.826;23.992;2023-09-18T10:55:00;95815.78;;;22.92;100.00
40650;BME280;26342;42.826;23.992;2023-09-18T10:57:33;95810.03;;;22.94;100.00
40650;BME280;26342;42.826;23.992;2023-09-18T10:59:59;95812.84;;;23.06;100.00
40650;BME280;26342;42.826;23.992;2023-09-18T11:02:27;95807.66;;;23.22;100.00
40650;BME280;26342;42.826;23.992;2023-09-18T11:04:53;95802.38;;;23.25;100.00
40650;BME280;26342;42.826;23.992;2023-09-18T11:07:21;95810.13;;;23.44;100.00
40650;BME280;26342;42.826;23.992;2023-09-18T11:09:47;95811.38;;;23.55;100.00
40650;BME280;26342;42.826;23.992;2023-09-18T11:12:16;95800.13;;;23.65;100.00
40650;BME280;26342;42.826;23.992;2023-09-18T11:14:48;95800.94;;;23.87;100.00
40650;BME280;26342;42.826;23.992;2023-09-18T11:22:47;95810.88;;;24.12;100.00
40650;BME280;26342;42.826;23.992;2023-09-18T11:25:35;95814.06;;;24.14;100.00
40650;BME280;26342;42.826;23.992;2023-09-18T11:28:03;95804.47;;;24.29;93.46
40650;BME280;26342;42.826;23.992;2023-09-18T11:30:29;95809.59;;;24.31;96.22
40650;BME280;26342;42.826;23.992;2023-09-18T11:32:55;95804.94;;;24.31;96.08
40650;BME280;26342;42.826;23.992;2023-09-18T11:35:21;95797.44;;;24.28;98.02
40650;BME280;26342;42.826;23.992;2023-09-18T11:38:03;95782.00;;;24.32;98.68
40650;BME280;26342;42.826;23.992;2023-09-18T11:40:32;95785.41;;;24.50;96.95
40650;BME280;26342;42.826;23.992;2023-09-18T11:43:32;95784.03;;;24.56;93.06
40650;BME280;26342;42.826;23.992;2023-09-18T11:46:01;95779.63;;;24.64;88.82
40650;BME280;26342;42.826;23.992;2023-09-18T11:48:30;95769.31;;;24.69;88.28
40650;BME280;26342;42.826;23.992;2023-09-18T11:51:02;95768.75;;;24.76;93.05
40650;BME280;26342;42.826;23.992;2023-09-18T11:53:34;95768.91;;;24.92;89.35
40650;BME280;26342;42.826;23.992;2023-09-18T11:56:02;95767.13;;;25.08;94.33
40650;BME280;26342;42.826;23.992;2023-09-18T11:58:28;95766.22;;;25.16;84.09
40650;BME280;26342;42.826;23.992;2023-09-18T12:00:54;95765.31;;;25.12;82.97
40650;BME280;26342;42.826;23.992;2023-09-18T12:03:21;95763.53;;;24.83;88.01
40650;BME280;26342;42.826;23.992;2023-09-18T12:05:57;95764.38;;;24.63;90.91
40650;BME280;26342;42.826;23.992;2023-09-18T12:08:24;95765.72;;;24.57;88.37
40650;BME280;26342;42.826;23.992;2023-09-18T12:10:53;95751.63;;;24.55;87.25
40650;BME280;26342;42.826;23.992;2023-09-18T12:13:19;95757.22;;;24.58;92.18
40650;BME280;26342;42.826;23.992;2023-09-18T12:15:45;95758.94;;;24.63;91.35
40650;BME280;26342;42.826;23.992;2023-09-18T12:18:11;95756.75;;;24.56;90.69
40650;BME280;26342;42.826;23.992;2023-09-18T12:20:38;95758.38;;;24.57;89.23
40650;BME280;26342;42.826;23.992;2023-09-18T12:23:10;95751.28;;;24.56;89.51
40650;BME280;26342;42.826;23.992;2023-09-18T12:25:35;95744.84;;;24.61;90.30
40650;BME280;26342;42.826;23.992;2023-09-18T12:28:01;95740.97;;;24.62;90.03
40650;BME280;26342;42.826;23.992;2023-09-18T12:30:29;95747.69;;;24.64;84.46
40650;BME280;26342;42.826;23.992;2023-09-18T12:32:58;95747.22;;;24.62;83.32
40650;BME280;26342;42.826;23.992;2023-09-18T12:35:25;95747.22;;;24.62;84.50
40650;BME280;26342;42.826;23.992;2023-09-18T12:37:55;95740.88;;;24.58;88.21
40650;BME280;26342;42.826;23.992;2023-09-18T12:40:29;95734.13;;;24.56;82.53
40650;BME280;26342;42.826;23.992;2023-09-18T12:42:56;95737.34;;;24.58;81.49
40650;BME280;26342;42.826;23.992;2023-09-18T12:45:24;95728.41;;;24.48;81.96